Time;durP1;ratioP1;P1;durP2;ratioP2;P2;SDS_P1;SDS_P2;PMS_P1;PMS_P2;Temp;Humidity;BMP_temperature;BMP_pressure;BME280_temperature;BME280_humidity;BME280_pressure;Samples;Min_cycle;Max_cycle;Signal;HPM_P1;HPM_P2
2024/01/22 00:00:07;;;;;;;;;;;;;;;18.34;57.04;100217.81;2088019;28;19931;-70
2024/01/22 00:01:08;;;;;;;;;;;;;;;18.34;57.10;100220.50;2088009;28;19929;-70
2024/01/22 00:02:09;;;;;;;;;;;;;;;18.33;57.12;100221.53;2090954;28;19935;-70
2024/01/22 00:03:10;;;;;;;;;;;;;;;18.31;56.74;100219.00;2088754;28;20403;-70
2024/01/22 00:04:11;;;;;;;;;;;;;;;18.31;56.95;100218.16;2089955;28;19924;-70
2024/01/22 00:05:12;;;;;;;;;;;;;;;18.32;56.59;100219.81;2090978;28;19925;-70
2024/01/22 00:06:13;;;;;;;;;;;;;;;18.30;57.00;100219.13;2090864;28;19955;-70
2024/01/22 00:07:14;;;;;;;;;;;;;;;18.25;57.04;100208.91;2088409;28;20277;-70
2024/01/22 00:08:15;;;;;;;;;;;;;;;18.25;57.05;100216.97;2087690;28;19925;-70
2024/01/22 00:09:16;;;;;;;;;;;;;;;18.25;56.84;100213.44;2089222;28;20418;-70
2024/01/22 00:10:17;;;;;;;;;;;;;;;18.23;56.96;100218.13;2087769;28;19936;-70
2024/01/22 00:11:20;;;;;;;;;;;;;;;18.21;56.90;100217.44;2090217;28;19928;-70
2024/01/22 00:12:21;;;;;;;;;;;;;;;18.20;56.80;100223.81;2087490;28;20019;-70
2024/01/22 00:13:22;;;;;;;;;;;;;;;18.18;57.02;100215.91;2087758;28;19936;-69
2024/01/22 00:14:23;;;;;;;;;;;;;;;18.18;57.18;100215.06;2087151;28;19929;-69
2024/01/22 00:15:24;;;;;;;;;;;;;;;18.17;57.23;100216.09;2088775;28;20501;-69
2024/01/22 00:16:25;;;;;;;;;;;;;;;18.14;57.12;100213.72;2088548;28;20286;-70
2024/01/22 00:17:27;;;;;;;;;;;;;;;18.12;57.15;100211.19;2086853;28;19943;-69
2024/01/22 00:18:27;;;;;;;;;;;;;;;18.13;57.04;100217.41;2086616;28;19944;-69
2024/01/22 00:19:29;;;;;;;;;;;;;;;18.14;56.85;100219.94;2087990;28;20437;-69
2024/01/22 00:20:29;;;;;;;;;;;;;;;18.09;57.34;100217.72;2088350;28;19925;-70
2024/01/22 00:21:31;;;;;;;;;;;;;;;18.09;57.31;100219.59;2087176;28;19983;-69
2024/01/22 00:22:31;;;;;;;;;;;;;;;18.11;57.13;100217.59;2090016;28;20404;-69
2024/01/22 00:23:33;;;;;;;;;;;;;;;18.08;57.12;100215.22;2087419;28;19929;-71
2024/01/22 00:24:34;;;;;;;;;;;;;;;18.04;57.49;100216.53;2087534;28;19940;-70
2024/01/22 00:25:35;;;;;;;;;;;;;;;18.03;57.39;100218.38;2086320;28;20516;-70
2024/01/22 00:26:37;;;;;;;;;;;;;;;18.03;57.23;100221.06;2087656;28;19932;-70
2024/01/22 00:27:39;;;;;;;;;;;;;;;18.04;57.07;100212.00;2087142;28;19935;-69
2024/01/22 00:28:39;;;;;;;;;;;;;;;18.04;57.37;100209.31;2086690;28;19936;-70
2024/01/22 00:29:40;;;;;;;;;;;;;;;18.05;57.28;100215.53;2086441;28;19932;-70
2024/01/22 00:30:41;;;;;;;;;;;;;;;18.05;57.00;100215.53;2091330;28;19933;-69
2024/01/22 00:31:42;;;;;;;;;;;;;;;18.08;57.14;100208.00;2087280;28;19940;-70
2024/01/22 00:32:44;;;;;;;;;;;;;;;18.12;56.76;100210.38;2087956;28;19932;-70
2024/01/22 00:33:44;;;;;;;;;;;;;;;18.15;56.72;100212.72;2085925;28;19932;-70
2024/01/22 00:34:45;;;;;;;;;;;;;;;18.22;56.83;100211.06;2086327;28;19935;-69
2024/01/22 00:35:47;;;;;;;;;;;;;;;18.24;56.50;100206.38;2087340;28;19935;-70
2024/01/22 00:36:47;;;;;;;;;;;;;;;18.30;56.74;100213.75;2088687;28;20423;-70
2024/01/22 00:37:49;;;;;;;;;;;;;;;18.32;56.70;100217.13;2085506;28;19940;-69
2024/01/22 00:38:49;;;;;;;;;;;;;;;18.35;56.64;100219.50;2088021;28;20529;-69
2024/01/22 00:39:55;;;;;;;;;;;;;;;18.37;56.75;100203.22;2091195;28;19931;-70
2024/01/22 00:40:56;;;;;;;;;;;;;;;18.40;56.60;100210.94;2089570;28;20454;-70
2024/01/22 00:41:58;;;;;;;;;;;;;;;18.39;56.47;100204.75;2089863;28;19932;-70
2024/01/22 00:42:59;;;;;;;;;;;;;;;18.41;56.29;100205.41;2089082;28;19929;-70
2024/01/22 00:44:01;;;;;;;;;;;;;;;18.43;56.72;100208.78;2088599;28;21240;-70
2024/01/22 00:45:02;;;;;;;;;;;;;;;18.46;56.51;100203.06;2090458;28;19936;-69
2024/01/22 00:46:03;;;;;;;;;;;;;;;18.47;56.54;100202.09;2087111;28;19924;-70
2024/01/22 00:47:04;;;;;;;;;;;;;;;18.50;56.55;100208.97;2086654;28;20780;-70
2024/01/22 00:48:06;;;;;;;;;;;;;;;18.50;56.50;100204.44;2086424;28;20432;-69
2024/01/22 00:49:07;;;;;;;;;;;;;;;18.52;56.68;100206.94;2088743;28;19932;-70
2024/01/22 00:50:08;;;;;;;;;;;;;;;18.53;56.41;100204.09;2086140;28;20304;-70
2024/01/22 00:51:10;;;;;;;;;;;;;;;18.54;56.57;100204.94;2088981;28;19936;-70
2024/01/22 00:52:12;;;;;;;;;;;;;;;18.56;56.58;100196.72;2089222;28;20323;-70
2024/01/22 00:53:12;;;;;;;;;;;;;;;18.57;56.33;100209.16;2089547;28;19924;-70
2024/01/22 00:54:14;;;;;;;;;;;;;;;18.57;56.57;100203.78;2087546;28;19924;-70
2024/01/22 00:55:14;;;;;;;;;;;;;;;18.58;56.52;100205.44;2087810;28;19929;-69
2024/01/22 00:56:16;;;;;;;;;;;;;;;18.59;56.69;100209.81;2088772;28;19929;-69
2024/01/22 00:57:19;;;;;;;;;;;;;;;18.61;56.59;100210.47;2086985;28;19928;-70
2024/01/22 00:58:21;;;;;;;;;;;;;;;18.60;56.51;100211.50;2085906;28;19991;-70
2024/01/22 00:59:21;;;;;;;;;;;;;;;18.60;56.57;100215.03;2086007;28;19933;-70
2024/01/22 01:00:23;;;;;;;;;;;;;;;18.61;56.58;100208.66;2083884;28;19951;-68
2024/01/22 01:01:23;;;;;;;;;;;;;;;18.62;56.39;100204.97;2090707;28;19928;-69
2024/01/22 01:02:26;;;;;;;;;;;;;;;18.63;56.61;100214.69;2079221;28;19929;-69
2024/01/22 01:03:26;;;;;;;;;;;;;;;18.63;56.66;100211.16;2085850;28;19933;-69
2024/01/22 01:04:27;;;;;;;;;;;;;;;18.63;56.80;100214.69;2088441;28;20407;-70
2024/01/22 01:05:28;;;;;;;;;;;;;;;18.63;56.57;100216.53;2088747;28;20646;-70
2024/01/22 01:06:29;;;;;;;;;;;;;;;18.63;56.43;100220.06;2087932;28;19929;-70
2024/01/22 01:07:29;;;;;;;;;;;;;;;18.63;56.29;100216.53;2087969;28;19933;-70
2024/01/22 01:08:31;;;;;;;;;;;;;;;18.63;56.67;100214.69;2088176;28;19928;-69
2024/01/22 01:09:32;;;;;;;;;;;;;;;18.63;56.50;100216.53;2090193;28;19954;-70
2024/01/22 01:10:32;;;;;;;;;;;;;;;18.64;56.83;100210.19;2088195;28;20027;-70
2024/01/22 01:11:34;;;;;;;;;;;;;;;18.63;56.25;100209.31;2085324;28;20404;-69
2024/01/22 01:12:37;;;;;;;;;;;;;;;18.65;56.59;100207.31;2088127;28;19928;-69
2024/01/22 01:13:38;;;;;;;;;;;;;;;18.63;56.44;100203.09;2089059;28;19928;-69
2024/01/22 01:14:39;;;;;;;;;;;;;;;18.65;56.40;100201.94;2087732;28;19932;-70
2024/01/22 01:15:41;;;;;;;;;;;;;;;18.62;56.56;100199.59;2089430;28;19929;-70
2024/01/22 01:16:41;;;;;;;;;;;;;;;18.63;56.49;100213.84;2086976;28;21473;-69
2024/01/22 01:17:43;;;;;;;;;;;;;;;18.65;56.40;100203.78;2089702;28;19933;-70
2024/01/22 01:18:43;;;;;;;;;;;;;;;18.63;56.59;100203.94;2088804;28;19935;-70
2024/01/22 01:19:44;;;;;;;;;;;;;;;18.65;56.41;100210.00;2084398;28;19931;-70
2024/01/22 01:20:45;;;;;;;;;;;;;;;18.64;56.50;100202.94;2083786;28;19929;-69
2024/01/22 01:21:46;;;;;;;;;;;;;;;18.63;56.34;100203.94;2087528;28;20595;-70
2024/01/22 01:22:46;;;;;;;;;;;;;;;18.64;56.60;100210.19;2088710;28;19928;-70
2024/01/22 01:23:48;;;;;;;;;;;;;;;18.63;56.63;100198.56;2086413;28;20416;-70
2024/01/22 01:24:48;;;;;;;;;;;;;;;18.63;56.51;100209.31;2087986;28;19939;-70
2024/01/22 01:25:49;;;;;;;;;;;;;;;18.62;56.33;100196.88;2089888;28;20467;-70
2024/01/22 01:26:51;;;;;;;;;;;;;;;18.63;56.41;100203.94;2089848;28;19929;-69
2024/01/22 01:27:52;;;;;;;;;;;;;;;18.62;56.39;100202.28;2089628;28;19928;-70
2024/01/22 01:28:54;;;;;;;;;;;;;;;18.62;56.35;100207.66;2084463;28;19970;-70
2024/01/22 01:29:55;;;;;;;;;;;;;;;18.62;56.44;100206.81;2089074;28;19928;-70
2024/01/22 01:30:57;;;;;;;;;;;;;;;18.61;56.45;100208.66;2085732;28;20027;-70
2024/01/22 01:31:57;;;;;;;;;;;;;;;18.61;56.38;100210.47;2086169;28;19932;-70
2024/01/22 01:32:59;;;;;;;;;;;;;;;18.61;56.78;100210.47;2087859;28;20353;-70
2024/01/22 01:33:59;;;;;;;;;;;;;;;18.61;56.34;100210.47;2089494;28;19932;-70
2024/01/22 01:35:00;;;;;;;;;;;;;;;18.60;56.42;100209.66;2087132;28;19935;-70
2024/01/22 01:36:02;;;;;;;;;;;;;;;18.60;56.18;100216.88;2085831;28;19939;-70
2024/01/22 01:37:03;;;;;;;;;;;;;;;18.58;56.55;100218.88;2087367;28;20404;-70
2024/01/22 01:38:04;;;;;;;;;;;;;;;18.56;56.73;100212.84;2086229;28;19929;-70
2024/01/22 01:39:05;;;;;;;;;;;;;;;18.56;56.70;100213.69;2086725;28;19929;-70
2024/01/22 01:40:06;;;;;;;;;;;;;;;18.55;56.39;100217.34;2089039;28;20758;-70
2024/01/22 01:41:08;;;;;;;;;;;;;;;18.57;56.21;100211.84;2087642;28;19933;-69
2024/01/22 01:42:08;;;;;;;;;;;;;;;18.56;56.67;100210.16;2084572;28;19933;-70
2024/01/22 01:43:11;;;;;;;;;;;;;;;18.54;56.39;100213.84;2089909;28;19952;-70
2024/01/22 01:44:12;;;;;;;;;;;;;;;18.54;56.58;100211.16;2088999;28;19933;-70
2024/01/22 01:45:14;;;;;;;;;;;;;;;18.55;56.48;100217.34;2087342;28;19930;-69
2024/01/22 01:46:15;;;;;;;;;;;;;;;18.51;56.50;100213.34;2089636;28;19944;-70
2024/01/22 01:47:16;;;;;;;;;;;;;;;18.53;56.81;100214.84;2088367;28;20299;-70
2024/01/22 01:48:17;;;;;;;;;;;;;;;18.54;56.74;100213.00;2090281;28;19955;-70
2024/01/22 01:49:19;;;;;;;;;;;;;;;18.52;56.59;100210.47;2090045;28;20379;-70
2024/01/22 01:50:19;;;;;;;;;;;;;;;18.52;56.48;100213.16;2088587;28;23148;-69
2024/01/22 01:51:21;;;;;;;;;;;;;;;18.52;56.42;100212.31;2088539;28;19932;-70
2024/01/22 01:52:22;;;;;;;;;;;;;;;18.50;56.65;100207.13;2087191;28;20183;-70
2024/01/22 01:53:24;;;;;;;;;;;;;;;18.50;56.45;100208.97;2086744;28;19928;-69
2024/01/22 01:54:25;;;;;;;;;;;;;;;18.49;56.54;100213.47;2087228;28;19924;-69
2024/01/22 01:55:26;;;;;;;;;;;;;;;18.49;56.52;100209.97;2087642;28;19934;-69
2024/01/22 01:56:27;;;;;;;;;;;;;;;18.49;56.55;100209.97;2085585;28;20035;-70
2024/01/22 01:57:29;;;;;;;;;;;;;;;18.49;56.52;100207.28;2087585;28;20345;-70
2024/01/22 01:58:31;;;;;;;;;;;;;;;18.48;56.47;100205.59;2088507;28;19932;-70
2024/01/22 01:59:33;;;;;;;;;;;;;;;18.46;56.45;100207.59;2085144;28;19928;-69
2024/01/22 02:00:33;;;;;;;;;;;;;;;18.45;56.63;100208.63;2088600;28;19936;-70
2024/01/22 02:01:35;;;;;;;;;;;;;;;18.41;56.70;100205.41;2088115;28;19967;-71
2024/01/22 02:02:37;;;;;;;;;;;;;;;18.41;56.43;100205.41;2088656;28;19933;-70
2024/01/22 02:03:40;;;;;;;;;;;;;;;18.41;56.76;100205.41;2088940;28;19997;-70
2024/01/22 02:04:40;;;;;;;;;;;;;;;18.39;56.56;100202.06;2085403;28;20362;-69
2024/01/22 02:05:42;;;;;;;;;;;;;;;18.39;56.81;100206.59;2087290;28;19929;-69
2024/01/22 02:06:42;;;;;;;;;;;;;;;18.35;56.86;100202.53;2085872;28;19928;-70
2024/01/22 02:07:44;;;;;;;;;;;;;;;18.36;56.76;100199.72;2087212;28;19932;-70
2024/01/22 02:08:49;;;;;;;;;;;;;;;18.36;56.77;100202.38;2084806;28;20366;-70
2024/01/22 02:09:52;;;;;;;;;;;;;;;18.35;56.63;100199.84;2085585;28;19929;-70
2024/01/22 02:10:52;;;;;;;;;;;;;;;18.35;56.42;100205.22;2086117;28;19929;-70
2024/01/22 02:11:54;;;;;;;;;;;;;;;18.34;56.77;100199.03;2088470;28;19971;-70
2024/01/22 02:12:54;;;;;;;;;;;;;;;18.33;56.92;100194.66;2086369;28;19940;-70
2024/01/22 02:13:57;;;;;;;;;;;;;;;18.30;56.53;100194.97;2083149;28;19932;-70
2024/01/22 02:14:58;;;;;;;;;;;;;;;18.31;56.78;100202.03;2080918;28;19932;-70
2024/01/22 02:16:00;;;;;;;;;;;;;;;18.26;56.75;100199.00;2088926;28;20392;-70
2024/01/22 02:17:00;;;;;;;;;;;;;;;18.26;56.96;100193.63;2086315;28;19935;-70
2024/01/22 02:18:02;;;;;;;;;;;;;;;18.23;56.71;100194.78;2086788;28;19954;-70
2024/01/22 02:19:02;;;;;;;;;;;;;;;18.24;56.71;100188.41;2087190;28;19928;-70
2024/01/22 02:20:04;;;;;;;;;;;;;;;18.24;56.69;100192.94;2088494;28;20419;-70
2024/01/22 02:21:05;;;;;;;;;;;;;;;18.23;56.85;100189.41;2088330;28;19933;-70
2024/01/22 02:22:06;;;;;;;;;;;;;;;18.23;56.92;100192.09;2084947;28;19929;-69
2024/01/22 02:23:09;;;;;;;;;;;;;;;18.24;56.63;100184.88;2086301;28;19970;-70
2024/01/22 02:24:09;;;;;;;;;;;;;;;18.26;56.78;100188.25;2086866;28;19925;-70
2024/01/22 02:25:12;;;;;;;;;;;;;;;18.26;56.57;100183.72;2088249;28;20120;-70
2024/01/22 02:26:13;;;;;;;;;;;;;;;18.29;56.45;100185.25;2087166;28;19932;-70
2024/01/22 02:27:15;;;;;;;;;;;;;;;18.33;56.35;100188.44;2088528;28;19975;-69
2024/01/22 02:28:15;;;;;;;;;;;;;;;18.35;56.29;100187.25;2087117;28;20411;-70
2024/01/22 02:29:17;;;;;;;;;;;;;;;18.39;56.20;100187.78;2086264;28;19934;-70
2024/01/22 02:30:17;;;;;;;;;;;;;;;18.41;56.34;100181.22;2088277;28;19939;-70
2024/01/22 02:31:19;;;;;;;;;;;;;;;18.42;56.53;100188.28;2086078;28;20290;-70
2024/01/22 02:32:19;;;;;;;;;;;;;;;18.43;56.62;100187.28;2087849;28;19928;-70
2024/01/22 02:33:21;;;;;;;;;;;;;;;18.44;56.38;100183.59;2086913;28;19984;-69
2024/01/22 02:34:21;;;;;;;;;;;;;;;18.46;56.64;100188.81;2086359;28;19932;-68
2024/01/22 02:35:23;;;;;;;;;;;;;;;18.47;56.42;100185.09;2090034;28;20425;-69
2024/01/22 02:36:24;;;;;;;;;;;;;;;18.48;56.65;100187.63;2087853;28;20668;-69
2024/01/22 02:37:25;;;;;;;;;;;;;;;18.49;56.31;100185.78;2089623;28;20020;-70
2024/01/22 02:38:27;;;;;;;;;;;;;;;18.50;56.51;100198.22;2084778;28;20448;-70
2024/01/22 02:39:28;;;;;;;;;;;;;;;18.48;56.36;100187.63;2087760;28;20520;-69
2024/01/22 02:40:29;;;;;;;;;;;;;;;18.49;56.28;100192.00;2086198;28;19928;-70
2024/01/22 02:41:30;;;;;;;;;;;;;;;18.50;56.22;100198.22;2086770;28;20395;-70
2024/01/22 02:42:30;;;;;;;;;;;;;;;18.50;56.62;100196.38;2088591;28;19928;-70
2024/01/22 02:43:32;;;;;;;;;;;;;;;18.52;56.48;100190.81;2088334;28;19928;-70
2024/01/22 02:44:35;;;;;;;;;;;;;;;18.51;56.19;100191.84;2086584;28;19929;-69
2024/01/22 02:45:37;;;;;;;;;;;;;;;18.49;56.43;100178.56;2085816;28;20330;-69
2024/01/22 02:46:37;;;;;;;;;;;;;;;18.52;56.27;100188.97;2086111;28;19936;-69
2024/01/22 02:47:39;;;;;;;;;;;;;;;18.52;56.33;100183.59;2087163;28;20315;-70
2024/01/22 02:48:40;;;;;;;;;;;;;;;18.52;56.45;100191.66;2086236;28;19951;-69
2024/01/22 02:49:41;;;;;;;;;;;;;;;18.53;56.21;100196.03;2086508;28;19925;-69
2024/01/22 02:50:42;;;;;;;;;;;;;;;18.54;56.30;100192.34;2088694;28;19932;-69
2024/01/22 02:51:44;;;;;;;;;;;;;;;18.54;56.29;100186.97;2087960;28;20000;-69
2024/01/22 02:52:44;;;;;;;;;;;;;;;18.53;56.31;100187.97;2088185;28;19958;-69
2024/01/22 02:53:47;;;;;;;;;;;;;;;18.54;56.29;100188.81;2086747;28;19971;-70
2024/01/22 02:54:48;;;;;;;;;;;;;;;18.55;56.46;100190.47;2086218;28;20370;-70
2024/01/22 02:55:49;;;;;;;;;;;;;;;18.54;56.37;100194.19;2085844;28;19956;-70
2024/01/22 02:56:50;;;;;;;;;;;;;;;18.53;56.25;100193.34;2085971;28;19935;-69
2024/01/22 02:57:52;;;;;;;;;;;;;;;18.54;56.12;100188.81;2084457;28;19966;-70
2024/01/22 02:58:52;;;;;;;;;;;;;;;18.54;56.37;100183.44;2089660;28;19948;-70
2024/01/22 02:59:54;;;;;;;;;;;;;;;18.54;56.20;100189.66;2086899;28;20347;-70
2024/01/22 03:00:54;;;;;;;;;;;;;;;18.51;56.45;100179.25;2086007;28;20406;-70
2024/01/22 03:01:55;;;;;;;;;;;;;;;18.53;56.48;100185.28;2088293;28;19929;-70
2024/01/22 03:02:57;;;;;;;;;;;;;;;18.54;56.44;100178.06;2088108;28;19928;-70
2024/01/22 03:03:57;;;;;;;;;;;;;;;18.52;56.38;100188.97;2087212;28;20306;-70
2024/01/22 03:04:58;;;;;;;;;;;;;;;18.51;56.13;100184.63;2087706;28;20015;-69
2024/01/22 03:05:59;;;;;;;;;;;;;;;18.49;56.18;100183.94;2086527;28;19985;-70
2024/01/22 03:07:00;;;;;;;;;;;;;;;18.49;56.37;100180.41;2087408;28;19928;-70
2024/01/22 03:08:00;;;;;;;;;;;;;;;18.49;56.25;100185.78;2084453;28;20049;-69
2024/01/22 03:09:03;;;;;;;;;;;;;;;18.51;56.51;100181.91;2089789;28;19928;-70
2024/01/22 03:10:04;;;;;;;;;;;;;;;18.49;56.27;100180.41;2083761;28;19924;-70
2024/01/22 03:11:06;;;;;;;;;;;;;;;18.47;56.28;100177.91;2087344;28;19930;-70
2024/01/22 03:12:07;;;;;;;;;;;;;;;18.49;56.24;100183.94;2085306;28;19932;-69
2024/01/22 03:13:08;;;;;;;;;;;;;;;18.46;56.25;100181.56;2086926;28;20399;-69
2024/01/22 03:14:09;;;;;;;;;;;;;;;18.46;56.31;100178.88;2085720;28;19932;-70
2024/01/22 03:15:10;;;;;;;;;;;;;;;18.43;56.17;100179.22;2086545;28;19924;-71
2024/01/22 03:16:11;;;;;;;;;;;;;;;18.44;56.49;100186.28;2085478;28;19929;-70
2024/01/22 03:17:13;;;;;;;;;;;;;;;18.43;56.38;100179.22;2087636;28;19928;-70
2024/01/22 03:18:13;;;;;;;;;;;;;;;18.42;56.41;100182.91;2086477;28;19928;-70
2024/01/22 03:19:14;;;;;;;;;;;;;;;18.42;56.31;100182.91;2076147;28;19933;-70
2024/01/22 03:20:16;;;;;;;;;;;;;;;18.42;56.54;100174.03;2083661;28;19932;-69
2024/01/22 03:21:16;;;;;;;;;;;;;;;18.40;56.29;100179.56;2083140;28;20016;-70
2024/01/22 03:22:18;;;;;;;;;;;;;;;18.40;56.38;100179.56;2085596;28;20296;-70
2024/01/22 03:23:19;;;;;;;;;;;;;;;18.39;56.33;100177.06;2085552;28;19940;-69
2024/01/22 03:24:22;;;;;;;;;;;;;;;18.38;56.40;100183.41;2087944;28;19996;-70
2024/01/22 03:25:23;;;;;;;;;;;;;;;18.38;56.24;100178.88;2089052;28;19929;-69
2024/01/22 03:26:25;;;;;;;;;;;;;;;18.38;56.24;100181.56;2086181;28;20390;-69
2024/01/22 03:27:25;;;;;;;;;;;;;;;18.38;56.48;100183.41;2086890;28;19925;-70
2024/01/22 03:28:27;;;;;;;;;;;;;;;18.37;56.46;100179.88;2085673;28;19924;-69
2024/01/22 03:29:27;;;;;;;;;;;;;;;18.38;56.25;100184.25;2086117;28;20289;-69
2024/01/22 03:30:28;;;;;;;;;;;;;;;18.38;56.41;100186.09;2085503;28;19939;-70
2024/01/22 03:31:32;;;;;;;;;;;;;;;18.37;56.53;100185.25;2087782;28;19935;-70
2024/01/22 03:32:33;;;;;;;;;;;;;;;18.36;56.17;100186.28;2085992;28;19976;-69
2024/01/22 03:33:34;;;;;;;;;;;;;;;18.36;56.29;100185.41;2086585;28;19932;-70
2024/01/22 03:34:35;;;;;;;;;;;;;;;18.36;56.30;100190.78;2086129;28;20612;-69
2024/01/22 03:35:36;;;;;;;;;;;;;;;18.35;56.50;100183.75;2086775;28;19932;-70
2024/01/22 03:36:37;;;;;;;;;;;;;;;18.36;56.14;100188.09;2086763;28;20670;-69
2024/01/22 03:37:39;;;;;;;;;;;;;;;18.34;56.51;100199.03;2087063;28;20051;-70
2024/01/22 03:38:39;;;;;;;;;;;;;;;18.34;56.52;100198.19;2085137;28;19929;-70
2024/01/22 03:39:42;;;;;;;;;;;;;;;18.31;56.55;100193.97;2087273;28;20585;-69
2024/01/22 03:40:43;;;;;;;;;;;;;;;18.32;56.48;100195.66;2083135;28;22110;-70
2024/01/22 03:41:44;;;;;;;;;;;;;;;18.30;56.58;100200.34;2085118;28;19943;-70
2024/01/22 03:42:45;;;;;;;;;;;;;;;18.29;56.30;100202.19;2089200;28;20407;-69
2024/01/22 03:43:46;;;;;;;;;;;;;;;18.29;56.35;100202.19;2086865;28;19928;-70
2024/01/22 03:44:47;;;;;;;;;;;;;;;18.27;56.54;100204.19;2088217;28;19928;-70
2024/01/22 03:45:48;;;;;;;;;;;;;;;18.26;56.37;100207.06;2085569;28;19935;-70
2024/01/22 03:46:49;;;;;;;;;;;;;;;18.28;56.75;100205.06;2090563;28;19928;-70
2024/01/22 03:47:51;;;;;;;;;;;;;;;18.26;56.65;100193.63;2088767;28;20026;-70
2024/01/22 03:48:51;;;;;;;;;;;;;;;18.26;56.27;100191.78;2086767;28;19928;-70
2024/01/22 03:49:53;;;;;;;;;;;;;;;18.26;56.18;100199.00;2084704;28;20276;-71
2024/01/22 03:50:54;;;;;;;;;;;;;;;18.25;56.58;100200.84;2085615;28;19935;-70
2024/01/22 03:51:55;;;;;;;;;;;;;;;18.24;56.33;100201.00;2086902;28;20657;-70
2024/01/22 03:52:56;;;;;;;;;;;;;;;18.21;56.57;100199.47;2089517;28;19939;-70
2024/01/22 03:53:57;;;;;;;;;;;;;;;18.20;56.58;100203.16;2086477;28;19967;-70
2024/01/22 03:54:59;;;;;;;;;;;;;;;18.20;56.55;100196.97;2091636;28;19932;-70
2024/01/22 03:56:04;;;;;;;;;;;;;;;18.19;56.33;100201.50;2086233;28;19929;-70
2024/01/22 03:57:07;;;;;;;;;;;;;;;18.19;56.47;100197.94;2085360;28;20645;-70
2024/01/22 03:58:08;;;;;;;;;;;;;;;18.18;56.65;100201.66;2086829;28;19936;-70
2024/01/22 03:59:09;;;;;;;;;;;;;;;18.16;56.48;100195.59;2089557;28;19928;-69
2024/01/22 04:00:10;;;;;;;;;;;;;;;18.17;56.78;100194.59;2087635;28;20403;-70
2024/01/22 04:01:19;;;;;;;;;;;;;;;18.14;56.58;100192.25;2088490;28;19931;-70
2024/01/22 04:02:19;;;;;;;;;;;;;;;18.12;56.80;100187.03;2087420;28;19936;-70
2024/01/22 04:03:21;;;;;;;;;;;;;;;18.09;56.66;100196.25;2087659;28;19972;-69
2024/01/22 04:04:21;;;;;;;;;;;;;;;18.09;56.79;100190.03;2090655;28;19935;-70
2024/01/22 04:05:23;;;;;;;;;;;;;;;18.08;56.73;100189.22;2085203;28;19932;-68
2024/01/22 04:06:23;;;;;;;;;;;;;;;18.09;56.71;100190.88;2090285;28;20419;-69
2024/01/22 04:07:25;;;;;;;;;;;;;;;18.05;56.68;100189.53;2089579;28;19924;-69
2024/01/22 04:08:25;;;;;;;;;;;;;;;18.05;56.78;100194.91;2085693;28;19933;-70
2024/01/22 04:09:27;;;;;;;;;;;;;;;18.06;56.85;100195.75;2087012;28;20019;-69
2024/01/22 04:10:29;;;;;;;;;;;;;;;18.01;56.91;100193.53;2083532;28;19933;-69
2024/01/22 04:11:31;;;;;;;;;;;;;;;18.02;56.49;100197.06;2086444;28;20007;-69
2024/01/22 04:12:31;;;;;;;;;;;;;;;18.00;56.94;100201.75;2087431;28;19925;-70
2024/01/22 04:13:33;;;;;;;;;;;;;;;18.01;56.85;100206.13;2087408;28;19932;-70
2024/01/22 04:14:33;;;;;;;;;;;;;;;17.98;56.95;100214.50;2087889;28;19931;-69
2024/01/22 04:15:35;;;;;;;;;;;;;;;17.97;56.72;100213.66;2087983;28;20262;-70
2024/01/22 04:16:35;;;;;;;;;;;;;;;17.99;56.93;100210.81;2089439;28;20442;-69
2024/01/22 04:17:37;;;;;;;;;;;;;;;17.96;56.89;100209.28;2088317;28;19928;-69
2024/01/22 04:18:39;;;;;;;;;;;;;;;17.96;56.77;100217.34;2086860;28;19959;-69
2024/01/22 04:19:42;;;;;;;;;;;;;;;17.95;56.88;100209.47;2091347;28;19958;-70
2024/01/22 04:20:43;;;;;;;;;;;;;;;17.92;56.52;100209.78;2087759;28;19933;-69
2024/01/22 04:21:45;;;;;;;;;;;;;;;17.92;56.97;100210.63;2086992;28;19928;-70
2024/01/22 04:22:45;;;;;;;;;;;;;;;17.89;56.73;100213.63;2087459;28;19932;-69
2024/01/22 04:23:47;;;;;;;;;;;;;;;17.89;57.02;100213.63;2089112;28;19934;-70
2024/01/22 04:24:47;;;;;;;;;;;;;;;17.88;57.00;100213.78;2087582;28;19940;-70
2024/01/22 04:25:50;;;;;;;;;;;;;;;17.88;56.96;100219.97;2087472;28;20627;-70
2024/01/22 04:26:51;;;;;;;;;;;;;;;17.88;56.69;100219.97;2089686;28;19951;-70
2024/01/22 04:27:54;;;;;;;;;;;;;;;17.87;56.73;100215.63;2087214;28;20772;-71
2024/01/22 04:28:55;;;;;;;;;;;;;;;17.85;56.86;100218.44;2090418;28;19963;-70
2024/01/22 04:29:57;;;;;;;;;;;;;;;17.85;56.80;100209.56;2087448;28;19940;-70
2024/01/22 04:30:57;;;;;;;;;;;;;;;17.83;56.71;100190.94;2090930;28;19954;-69
2024/01/22 04:31:59;;;;;;;;;;;;;;;17.83;56.71;100193.63;2090595;28;20589;-70
2024/01/22 04:32:59;;;;;;;;;;;;;;;17.83;56.56;100187.44;2086929;28;19936;-70
2024/01/22 04:34:01;;;;;;;;;;;;;;;17.81;56.91;100184.91;2085402;28;19929;-70
2024/01/22 04:35:04;;;;;;;;;;;;;;;17.81;56.79;100184.06;2086915;28;19929;-70
2024/01/22 04:36:06;;;;;;;;;;;;;;;17.81;56.69;100184.06;2084743;28;19936;-70
2024/01/22 04:37:06;;;;;;;;;;;;;;;17.79;56.76;100180.69;2087383;28;19932;-70
2024/01/22 04:38:08;;;;;;;;;;;;;;;17.77;56.62;100177.28;2086580;28;20828;-70
2024/01/22 04:39:09;;;;;;;;;;;;;;;17.77;56.55;100185.34;2087722;28;20369;-70
2024/01/22 04:40:10;;;;;;;;;;;;;;;17.75;56.50;100182.00;2088322;28;19924;-70
2024/01/22 04:41:13;;;;;;;;;;;;;;;17.75;56.63;100184.69;2085797;28;19935;-70
2024/01/22 04:42:18;;;;;;;;;;;;;;;17.74;56.56;100181.13;2086563;28;19929;-69
2024/01/22 04:43:21;;;;;;;;;;;;;;;17.74;56.59;100180.28;2090115;28;21158;-70
2024/01/22 04:44:22;;;;;;;;;;;;;;;17.72;56.75;100183.16;2088107;28;19936;-70
2024/01/22 04:45:23;;;;;;;;;;;;;;;17.72;56.72;100179.59;2086762;28;19928;-70
2024/01/22 04:46:24;;;;;;;;;;;;;;;17.71;56.67;100176.09;2087368;28;19936;-69
2024/01/22 04:47:24;;;;;;;;;;;;;;;17.69;56.47;100177.25;2087798;28;19929;-70
2024/01/22 04:48:26;;;;;;;;;;;;;;;17.70;56.60;100176.25;2085878;28;20063;-70
2024/01/22 04:49:27;;;;;;;;;;;;;;;17.69;56.67;100182.59;2090021;28;19972;-70
2024/01/22 04:50:28;;;;;;;;;;;;;;;17.67;56.41;100185.47;2088308;28;19933;-70
2024/01/22 04:51:29;;;;;;;;;;;;;;;17.67;56.62;100181.94;2088737;28;20001;-70
2024/01/22 04:52:31;;;;;;;;;;;;;;;17.64;56.71;100191.16;2087294;28;19932;-70
2024/01/22 04:53:31;;;;;;;;;;;;;;;17.63;56.70;100195.69;2086895;28;20023;-69
2024/01/22 04:54:33;;;;;;;;;;;;;;;17.61;56.75;100195.00;2089139;28;20369;-70
2024/01/22 04:55:33;;;;;;;;;;;;;;;17.60;56.52;100195.97;2086882;28;19925;-70
2024/01/22 04:56:40;;;;;;;;;;;;;;;17.59;56.82;100194.31;2086743;28;20944;-70
2024/01/22 04:57:40;;;;;;;;;;;;;;;17.62;56.75;100202.03;2090036;28;21773;-70
2024/01/22 04:58:42;;;;;;;;;;;;;;;17.62;56.69;100207.41;2086368;28;20059;-71
2024/01/22 04:59:42;;;;;;;;;;;;;;;17.63;56.49;100206.41;2089087;28;19933;-70
2024/01/22 05:00:45;;;;;;;;;;;;;;;17.67;56.63;100203.41;2087275;28;20451;-69
2024/01/22 05:01:45;;;;;;;;;;;;;;;17.70;56.41;100205.78;2086242;28;20023;-70
2024/01/22 05:02:47;;;;;;;;;;;;;;;17.75;56.47;100206.16;2085932;28;20793;-71
2024/01/22 05:03:47;;;;;;;;;;;;;;;17.81;56.35;100210.91;2086962;28;19929;-70
2024/01/22 05:04:49;;;;;;;;;;;;;;;17.85;56.16;100215.78;2087481;28;19929;-70
2024/01/22 05:05:49;;;;;;;;;;;;;;;17.90;56.32;100214.47;2086440;28;20567;-71
2024/01/22 05:06:51;;;;;;;;;;;;;;;17.92;56.04;100209.78;2084531;28;19932;-70
2024/01/22 05:07:51;;;;;;;;;;;;;;;17.95;56.17;100210.28;2088550;28;20794;-70
2024/01/22 05:08:52;;;;;;;;;;;;;;;17.97;56.27;100210.97;2087177;28;19928;-70
2024/01/22 05:09:56;;;;;;;;;;;;;;;17.97;56.36;100202.06;2088256;28;20259;-70
2024/01/22 05:10:57;;;;;;;;;;;;;;;18.01;56.15;100214.19;2086603;28;19929;-70
2024/01/22 05:12:00;;;;;;;;;;;;;;;18.00;56.31;100207.97;2088941;28;19929;-70
2024/01/22 05:13:01;;;;;;;;;;;;;;;18.02;56.30;100215.84;2088489;28;19931;-70
2024/01/22 05:14:03;;;;;;;;;;;;;;;18.02;56.24;100208.63;2088940;28;20460;-70